Time;durP1;ratioP1;P1;durP2;ratioP2;P2;SDS_P1;SDS_P2;PMS_P1;PMS_P2;Temp;Humidity;BMP_temperature;BMP_pressure;BME280_temperature;BME280_humidity;BME280_pressure;Samples;Min_cycle;Max_cycle;Signal;HPM_P1;HPM_P2
2023/03/09 00:02:00;;;;;;;4.85;3.78;;;;;;;1.61;72.94;99335.63;4974901;28;20050;-77
2023/03/09 00:04:26;;;;;;;4.50;3.50;;;;;;;1.63;72.99;99354.84;4958384;28;20093;-76
2023/03/09 00:06:52;;;;;;;5.80;4.32;;;;;;;1.67;72.84;99349.38;4975832;28;20039;-77
2023/03/09 00:09:17;;;;;;;6.25;4.10;;;;;;;1.69;72.80;99344.91;4975819;28;20046;-76
2023/03/09 00:11:45;;;;;;;5.28;4.00;;;;;;;1.62;72.72;99354.00;4975582;28;20042;-76
2023/03/09 00:14:11;;;;;;;4.35;3.80;;;;;;;1.60;72.89;99345.28;4957930;28;20454;-75
2023/03/09 00:16:38;;;;;;;6.85;3.65;;;;;;;1.61;72.84;99335.63;4975226;28;20081;-76
2023/03/09 00:19:04;;;;;;;6.93;4.05;;;;;;;1.60;73.28;99350.56;4975485;28;20138;-77
2023/03/09 00:21:41;;;;;;;4.38;3.35;;;;;;;1.60;72.93;99345.28;4975463;28;20474;-76
2023/03/09 00:24:10;;;;;;;3.90;3.20;;;;;;;1.63;72.87;99352.22;4975378;28;20050;-76
2023/03/09 00:26:38;;;;;;;4.63;3.65;;;;;;;1.51;72.77;99343.06;4941875;28;20042;-76
2023/03/09 00:29:06;;;;;;;4.75;3.88;;;;;;;1.62;72.87;99337.34;4974569;28;20049;-76
2023/03/09 00:31:32;;;;;;;4.30;3.60;;;;;;;1.62;72.59;99332.06;4942057;28;20038;-75
2023/03/09 00:33:58;;;;;;;6.38;3.95;;;;;;;1.57;72.76;99350.69;4973976;28;20137;-75
2023/03/09 00:36:24;;;;;;;4.22;3.42;;;;;;;1.57;72.31;99334.88;4975044;28;20133;-75
2023/03/09 00:38:52;;;;;;;5.88;3.53;;;;;;;1.60;72.49;99340.03;4974970;28;20043;-76
2023/03/09 00:41:19;;;;;;;5.22;3.78;;;;;;;1.62;71.90;99346.09;4973775;28;20078;-77
2023/03/09 00:43:45;;;;;;;4.38;3.55;;;;;;;1.58;71.89;99357.69;4975283;28;20066;-76
2023/03/09 00:46:11;;;;;;;5.82;4.03;;;;;;;1.64;72.12;99333.69;4975017;28;20081;-76
2023/03/09 00:48:38;;;;;;;5.20;4.00;;;;;;;1.70;71.77;99333.44;4957536;28;20161;-76
2023/03/09 00:51:05;;;;;;;15.68;4.65;;;;;;;1.71;71.64;99347.47;4974669;28;20509;-75
2023/03/09 00:53:30;;;;;;;4.75;4.15;;;;;;;1.69;71.44;99346.66;4973477;28;20046;-76
2023/03/09 00:56:00;;;;;;;6.45;4.00;;;;;;;1.74;71.72;99341.22;4974715;28;20619;-77
2023/03/09 00:58:26;;;;;;;6.15;4.57;;;;;;;1.75;71.39;99338.50;4957445;28;20047;-75
2023/03/09 01:00:52;;;;;;;5.22;3.90;;;;;;;1.61;71.61;99335.63;4973226;28;20065;-76
2023/03/09 01:03:18;;;;;;;5.13;3.80;;;;;;;1.63;71.65;99334.63;4972887;28;20138;-77
2023/03/09 01:05:43;;;;;;;4.60;3.90;;;;;;;1.73;71.39;99318.41;4973409;28;20042;-76
2023/03/09 01:08:09;;;;;;;5.00;4.20;;;;;;;1.76;71.59;99323.53;4957250;28;20035;-76
2023/03/09 01:10:41;;;;;;;5.03;3.95;;;;;;;1.77;71.32;99327.88;4957201;28;20047;-76
2023/03/09 01:13:10;;;;;;;4.68;4.07;;;;;;;1.82;70.70;99328.56;4956993;28;20050;-77
2023/03/09 01:15:37;;;;;;;8.90;4.18;;;;;;;1.74;70.92;99325.41;4957268;28;20064;-76
2023/03/09 01:18:03;;;;;;;9.15;3.92;;;;;;;1.75;71.01;99333.22;4941499;28;20038;-76
2023/03/09 01:20:29;;;;;;;4.97;4.22;;;;;;;1.81;71.05;99332.13;4972987;28;20409;-76
2023/03/09 01:22:55;;;;;;;6.20;3.38;;;;;;;1.82;70.88;99331.19;4956749;28;20347;-77
2023/03/09 01:25:21;;;;;;;5.47;3.88;;;;;;;1.78;70.92;99337.53;4973416;28;20049;-77
2023/03/09 01:27:47;;;;;;;7.05;3.72;;;;;;;1.72;71.15;99337.78;4957002;28;20454;-77
2023/03/09 01:30:13;;;;;;;5.57;4.15;;;;;;;1.76;71.40;99334.09;4973103;28;20394;-77
2023/03/09 01:32:39;;;;;;;5.82;4.18;;;;;;;1.82;71.10;99328.56;4974353;28;20136;-76
2023/03/09 01:35:05;;;;;;;5.35;4.07;;;;;;;1.82;70.88;99329.41;4940947;28;20098;-76
2023/03/09 01:37:32;;;;;;;5.57;4.13;;;;;;;1.79;71.08;99323.41;4956815;28;20133;-77
2023/03/09 01:39:58;;;;;;;4.53;3.47;;;;;;;1.76;71.44;99328.81;4956970;28;20043;-77
2023/03/09 01:42:24;;;;;;;5.00;4.05;;;;;;;1.68;71.60;99343.19;4956907;28;20551;-76
2023/03/09 01:45:11;;;;;;;6.03;4.00;;;;;;;1.67;71.70;99332.72;4972583;28;20038;-77
2023/03/09 01:47:37;;;;;;;5.05;3.67;;;;;;;1.66;71.88;99331.88;4956672;28;20047;-76
2023/03/09 01:50:05;;;;;;;5.55;4.18;;;;;;;1.60;72.16;99334.75;4972438;28;20048;-76
2023/03/09 01:52:33;;;;;;;3.92;3.50;;;;;;;1.62;72.09;99338.19;4972959;28;20055;-77
2023/03/09 01:55:10;;;;;;;5.47;3.43;;;;;;;1.59;72.35;99333.06;4974403;28;20115;-77
2023/03/09 01:57:42;;;;;;;5.45;4.03;;;;;;;1.55;73.09;99318.31;4974274;28;20057;-76
2023/03/09 02:00:14;;;;;;;5.35;3.78;;;;;;;1.64;72.98;99309.13;4989153;28;20125;-77
2023/03/09 02:02:55;;;;;;;4.95;3.20;;;;;;;1.75;72.87;99332.38;4942146;28;20074;-77
2023/03/09 02:05:31;;;;;;;8.38;3.55;;;;;;;1.64;72.93;99301.22;4973955;28;20050;-76
2023/03/09 02:07:58;;;;;;;7.53;3.50;;;;;;;1.60;73.29;99312.84;4972707;28;20051;-76
2023/03/09 02:10:57;;;;;;;5.78;4.13;;;;;;;1.59;73.85;99308.50;4972447;28;20552;-77
2023/03/09 02:13:33;;;;;;;7.63;4.22;;;;;;;1.48;74.13;99313.38;4939517;28;20046;-76
2023/03/09 02:15:59;;;;;;;11.68;4.15;;;;;;;1.55;74.34;99320.94;4960333;28;20109;-77
2023/03/09 02:18:27;;;;;;;4.35;3.13;;;;;;;1.56;74.68;99312.09;4976911;28;20056;-76
2023/03/09 02:21:31;;;;;;;8.30;3.90;;;;;;;1.52;75.11;99305.25;4976190;28;20057;-77
2023/03/09 02:24:06;;;;;;;6.82;3.65;;;;;;;1.47;75.02;99317.78;4960288;28;20062;-77
2023/03/09 02:26:40;;;;;;;5.13;4.00;;;;;;;1.36;75.63;99304.22;4960147;28;20104;-77
2023/03/09 02:29:06;;;;;;;5.63;3.63;;;;;;;1.35;76.13;99313.03;4960119;28;20057;-75
2023/03/09 02:31:33;;;;;;;4.80;3.88;;;;;;;1.40;76.39;99305.81;4976107;28;20043;-76
2023/03/09 02:33:58;;;;;;;5.07;3.78;;;;;;;1.34;76.67;99306.06;4976242;28;20165;-76
2023/03/09 02:36:25;;;;;;;11.10;3.67;;;;;;;1.27;77.34;99307.25;4959756;28;20047;-74
2023/03/09 02:39:23;;;;;;;5.97;3.90;;;;;;;1.24;77.59;99310.00;4960049;28;20047;-77
2023/03/09 02:41:52;;;;;;;4.63;3.75;;;;;;;1.35;77.65;99297.22;4975625;28;20043;-74
2023/03/09 02:44:20;;;;;;;15.88;4.25;;;;;;;1.36;78.05;99317.41;4944263;28;20038;-76
2023/03/09 02:46:46;;;;;;;9.25;4.43;;;;;;;1.32;78.79;99306.13;4969131;28;20070;-74
2023/03/09 02:49:13;;;;;;;7.20;4.03;;;;;;;1.33;79.18;99305.22;4959870;28;20069;-77
2023/03/09 02:51:38;;;;;;;7.10;4.25;;;;;;;1.30;79.73;99293.94;4957701;28;20494;-77
2023/03/09 02:54:04;;;;;;;5.40;4.50;;;;;;;1.41;79.51;99303.09;4946971;28;20057;-77
2023/03/09 02:56:30;;;;;;;5.63;4.00;;;;;;;1.44;79.61;99291.59;5002723;28;20050;-78
2023/03/09 02:58:56;;;;;;;9.20;4.63;;;;;;;1.44;80.14;99291.59;4995023;28;20570;-77
2023/03/09 03:01:22;;;;;;;8.38;4.57;;;;;;;1.50;79.94;99286.03;4996371;28;20042;-76
2023/03/09 03:03:48;;;;;;;10.77;5.30;;;;;;;1.57;79.99;99291.88;4978696;28;20061;-78
2023/03/09 03:06:14;;;;;;;18.98;6.35;;;;;;;1.60;79.71;99271.53;4994508;28;20046;-76
2023/03/09 03:08:41;;;;;;;12.93;6.10;;;;;;;1.66;79.99;99276.53;4994868;28;20077;-76
2023/03/09 03:11:10;;;;;;;13.70;8.38;;;;;;;1.66;79.74;99276.53;5011326;28;20058;-76
2023/03/09 03:13:39;;;;;;;11.38;7.90;;;;;;;1.76;79.84;99276.09;4978369;28;20054;-77
2023/03/09 03:16:08;;;;;;;20.27;9.63;;;;;;;1.76;79.81;99279.59;4995091;28;20425;-77
2023/03/09 03:18:33;;;;;;;13.75;8.10;;;;;;;1.74;79.22;99277.97;5011116;28;20061;-77
2023/03/09 03:20:59;;;;;;;15.35;9.07;;;;;;;1.75;79.48;99263.88;4978365;28;20058;-76
2023/03/09 03:23:26;;;;;;;19.35;10.85;;;;;;;1.78;79.08;99253.19;4978248;28;20441;-77
2023/03/09 03:25:53;;;;;;;22.77;11.43;;;;;;;1.78;79.03;99254.03;4990059;28;20497;-77
2023/03/09 03:28:20;;;;;;;15.13;8.10;;;;;;;1.83;78.65;99259.09;4986068;28;20121;-76
2023/03/09 03:30:53;;;;;;;22.95;11.32;;;;;;;1.76;78.39;99260.28;5010901;28;20057;-76
2023/03/09 03:33:22;;;;;;;14.85;9.07;;;;;;;1.77;78.18;99256.72;4979108;28;20050;-79
2023/03/09 03:35:48;;;;;;;19.38;9.80;;;;;;;1.66;77.55;99244.06;4978646;28;20057;-77
2023/03/09 03:38:14;;;;;;;23.05;10.13;;;;;;;1.62;77.96;99235.44;4978043;28;20445;-79
2023/03/09 03:40:40;;;;;;;15.05;8.25;;;;;;;1.73;77.75;99244.63;4993998;28;20508;-81
2023/03/09 03:43:08;;;;;;;12.23;7.37;;;;;;;1.62;76.72;99243.34;4994349;28;20038;-80
2023/03/09 03:45:36;;;;;;;8.70;5.40;;;;;;;1.59;76.24;99253.16;4977948;28;20042;-77
2023/03/09 03:48:02;;;;;;;13.40;5.47;;;;;;;1.64;75.04;99251.16;4994555;28;20046;-78
2023/03/09 03:50:31;;;;;;;15.93;5.70;;;;;;;1.65;74.23;99263.41;4994103;28;20469;-79
2023/03/09 03:53:00;;;;;;;7.07;4.17;;;;;;;1.61;73.98;99249.53;4978731;28;20129;-77
2023/03/09 03:55:27;;;;;;;24.17;5.85;;;;;;;1.72;73.52;99274.53;4994604;28;20046;-77
2023/03/09 03:57:53;;;;;;;14.80;4.28;;;;;;;1.62;72.73;99272.34;4971766;28;20042;-75
2023/03/09 04:00:19;;;;;;;5.95;3.90;;;;;;;1.70;72.27;99266.72;4978437;28;20156;-77
2023/03/09 04:02:46;;;;;;;5.15;4.00;;;;;;;1.69;72.23;99255.31;4974670;28;20405;-76
2023/03/09 04:05:21;;;;;;;6.85;4.55;;;;;;;1.79;71.71;99278.63;4958369;28;20074;-77
2023/03/09 04:07:48;;;;;;;8.23;4.30;;;;;;;1.83;71.44;99265.22;4974403;28;20077;-78
2023/03/09 04:10:14;;;;;;;10.32;5.28;;;;;;;1.90;71.37;99264.00;4942298;28;20090;-78
2023/03/09 04:12:43;;;;;;;8.02;4.15;;;;;;;2.01;70.29;99271.44;4974791;28;20100;-79
2023/03/09 04:15:11;;;;;;;7.20;4.60;;;;;;;2.34;73.68;99262.88;4975653;28;20391;-79
2023/03/09 04:17:37;;;;;;;8.45;4.90;;;;;;;2.80;71.80;99276.47;4974640;28;20050;-80
2023/03/09 04:20:04;;;;;;;7.13;5.10;;;;;;;2.96;69.98;99266.00;4958295;28;20145;-81
2023/03/09 04:22:33;;;;;;;;;;;;;;;3.04;67.37;99287.59;4975900;28;20520;-80
2023/03/09 04:24:59;;;;;;;10.90;4.75;;;;;;;2.84;66.94;99294.72;4975125;28;20017;-85
2023/03/09 04:27:25;;;;;;;15.43;5.22;;;;;;;2.53;66.69;99289.22;4973793;28;20047;-78
2023/03/09 04:30:02;;;;;;;8.80;4.80;;;;;;;2.50;67.37;99284.09;4973874;28;20083;-79
2023/03/09 04:32:31;;;;;;;6.32;4.45;;;;;;;2.56;67.31;99279.38;4973569;28;20414;-79
2023/03/09 04:35:04;;;;;;;6.35;4.22;;;;;;;2.66;66.72;99270.06;4976141;28;20043;-79
2023/03/09 04:37:30;;;;;;;8.27;5.15;;;;;;;2.50;66.79;99253.28;4971875;28;20398;-79
2023/03/09 04:39:57;;;;;;;7.43;4.28;;;;;;;2.49;67.05;99262.13;4974938;28;20517;-78
2023/03/09 04:42:22;;;;;;;9.35;4.68;;;;;;;2.48;67.00;99276.25;4947714;28;20081;-82
2023/03/09 04:44:49;;;;;;;12.10;4.70;;;;;;;2.56;67.20;99258.28;4973015;28;20062;-77
2023/03/09 04:47:15;;;;;;;6.75;3.88;;;;;;;2.55;66.53;99250.41;4990185;28;20054;-79
2023/03/09 04:49:41;;;;;;;6.53;4.10;;;;;;;2.55;67.25;99260.97;4975335;28;20039;-79
2023/03/09 04:52:08;;;;;;;7.63;4.13;;;;;;;2.59;66.83;99252.81;4974409;28;20046;-80
2023/03/09 04:54:34;;;;;;;5.50;4.03;;;;;;;2.63;66.80;99262.34;4980237;28;20047;-80
2023/03/09 04:57:01;;;;;;;7.15;3.63;;;;;;;2.83;66.84;99276.31;4957621;28;20101;-78
2023/03/09 04:59:27;;;;;;;10.18;3.95;;;;;;;2.91;66.56;99292.63;4989874;28;20072;-81
2023/03/09 05:01:54;;;;;;;6.97;3.40;;;;;;;2.99;66.39;99292.25;4978342;28;20525;-79
2023/03/09 05:04:23;;;;;;;4.97;3.15;;;;;;;2.94;65.59;99297.78;4971431;28;20038;-79
2023/03/09 05:06:53;;;;;;;5.18;3.78;;;;;;;3.12;65.39;99304.78;4992475;28;20042;-76
2023/03/09 05:09:20;;;;;;;5.55;3.42;;;;;;;3.10;65.12;99322.47;4992540;28;20046;-78
2023/03/09 05:11:51;;;;;;;5.03;3.35;;;;;;;3.00;65.33;99329.13;4999128;28;20049;-79
2023/03/09 05:14:20;;;;;;;5.50;3.90;;;;;;;3.11;64.97;99321.53;4973555;28;20043;-77
2023/03/09 05:16:51;;;;;;;7.57;3.17;;;;;;;3.11;64.54;99308.31;5008812;28;20038;-79
2023/03/09 05:19:22;;;;;;;7.10;3.75;;;;;;;3.07;64.64;99324.41;4992036;28;20046;-79
2023/03/09 05:21:54;;;;;;;5.80;3.55;;;;;;;3.07;64.61;99316.50;5008943;28;20045;-79
2023/03/09 05:24:20;;;;;;;3.75;3.00;;;;;;;3.13;64.73;99317.03;4976348;28;20049;-78
2023/03/09 05:26:49;;;;;;;3.80;3.13;;;;;;;3.06;64.49;99313.00;4991946;28;20043;-79
2023/03/09 05:29:19;;;;;;;4.32;2.97;;;;;;;3.12;64.00;99338.22;4991994;28;20052;-79
2023/03/09 05:31:45;;;;;;;3.40;3.10;;;;;;;3.23;63.52;99343.84;4993539;28;20050;-79
2023/03/09 05:34:12;;;;;;;4.70;3.70;;;;;;;3.18;64.05;99356.44;4993294;28;20516;-78
2023/03/09 05:36:37;;;;;;;3.65;3.10;;;;;;;3.26;63.80;99375.38;4993555;28;20050;-78
2023/03/09 05:39:15;;;;;;;5.30;3.20;;;;;;;3.20;63.56;99378.34;4992039;28;20053;-79
2023/03/09 05:41:41;;;;;;;5.95;3.28;;;;;;;3.16;63.51;99366.22;4960101;28;20054;-79
2023/03/09 05:44:17;;;;;;;6.07;3.47;;;;;;;3.33;62.94;99375.94;4992452;28;20089;-79
2023/03/09 05:46:43;;;;;;;13.85;3.55;;;;;;;3.28;62.70;99357.69;4992238;28;20044;-79
2023/03/09 05:49:10;;;;;;;4.70;3.40;;;;;;;3.36;62.48;99367.88;4997512;28;20050;-78
2023/03/09 05:51:36;;;;;;;6.72;3.50;;;;;;;3.43;62.30;99356.06;4998731;28;20481;-79
2023/03/09 05:54:02;;;;;;;12.15;3.33;;;;;;;3.47;61.98;99351.47;4982518;28;20386;-78
2023/03/09 05:56:29;;;;;;;5.05;3.05;;;;;;;3.69;61.81;99356.53;4998465;28;20057;-79
2023/03/09 05:58:59;;;;;;;7.18;3.00;;;;;;;3.70;60.59;99352.94;4982893;28;20413;-79
2023/03/09 06:01:28;;;;;;;6.30;3.65;;;;;;;3.61;61.14;99373.63;4998686;28;20385;-80
2023/03/09 06:04:02;;;;;;;7.88;3.42;;;;;;;3.74;60.54;99357.97;4998594;28;20444;-79
2023/03/09 06:06:30;;;;;;;4.57;3.38;;;;;;;4.11;60.69;99359.56;4998378;28;20056;-78
2023/03/09 06:08:56;;;;;;;5.05;3.22;;;;;;;4.17;58.95;99368.94;4998611;28;20038;-78
2023/03/09 06:11:23;;;;;;;5.68;3.42;;;;;;;4.28;59.05;99360.44;4982229;28;20420;-78
2023/03/09 06:13:53;;;;;;;3.42;3.10;;;;;;;3.97;58.81;99372.66;4999667;28;20054;-79
2023/03/09 06:16:19;;;;;;;5.35;3.35;;;;;;;3.96;59.18;99359.50;4998408;28;20038;-78
2023/03/09 06:18:45;;;;;;;4.38;3.10;;;;;;;4.04;58.89;99363.47;4998436;28;20122;-79
2023/03/09 06:21:14;;;;;;;5.30;2.88;;;;;;;4.06;58.59;99364.25;5014623;28;20064;-78
2023/03/09 06:23:41;;;;;;;3.42;2.92;;;;;;;3.98;58.58;99349.69;4998361;28;20050;-79
2023/03/09 06:26:12;;;;;;;3.85;3.40;;;;;;;4.14;58.47;99363.84;4998868;28;20042;-79
2023/03/09 06:28:40;;;;;;;3.60;2.90;;;;;;;4.33;58.34;99353.97;4966379;28;20042;-79
2023/03/09 06:31:11;;;;;;;4.57;2.97;;;;;;;4.45;57.61;99351.59;4982184;28;20046;-78
2023/03/09 06:33:39;;;;;;;3.78;3.08;;;;;;;4.31;57.55;99344.38;5000048;28;20050;-79
2023/03/09 06:36:08;;;;;;;6.50;3.08;;;;;;;4.33;57.74;99361.06;4982088;28;20081;-79
2023/03/09 06:38:34;;;;;;;5.13;3.05;;;;;;;4.39;57.87;99348.31;4998159;28;20070;-79
2023/03/09 06:41:01;;;;;;;5.47;3.10;;;;;;;4.57;57.43;99361.50;4999444;28;20042;-79
2023/03/09 06:43:28;;;;;;;4.47;3.10;;;;;;;4.31;57.41;99349.69;4998146;28;20046;-78
2023/03/09 06:45:54;;;;;;;3.42;2.72;;;;;;;4.40;57.10;99370.38;4981701;28;20042;-77
2023/03/09 06:48:21;;;;;;;3.72;2.80;;;;;;;4.23;57.61;99365.13;4998753;28;20046;-78
2023/03/09 06:50:48;;;;;;;8.10;3.63;;;;;;;4.38;58.01;99374.88;4998809;28;20046;-79
2023/03/09 06:53:15;;;;;;;3.63;2.85;;;;;;;4.33;57.56;99361.06;4998150;28;20181;-78
2023/03/09 06:55:44;;;;;;;3.58;2.85;;;;;;;4.67;57.28;99370.66;4997900;28;20050;-80
2023/03/09 06:58:10;;;;;;;3.92;3.28;;;;;;;4.72;56.58;99359.78;4998067;28;20104;-79
2023/03/09 07:00:42;;;;;;;8.15;3.58;;;;;;;5.01;55.44;99374.91;4994303;28;20077;-79
2023/03/09 07:03:15;;;;;;;5.65;3.22;;;;;;;4.96;56.18;99378.75;4978420;28;20084;-80
2023/03/09 07:05:42;;;;;;;9.98;3.20;;;;;;;4.94;55.95;99370.88;4995325;28;20101;-78
2023/03/09 07:08:08;;;;;;;4.15;3.03;;;;;;;4.91;55.53;99365.75;4994960;28;20445;-77
2023/03/09 07:10:33;;;;;;;3.40;2.75;;;;;;;4.94;55.53;99368.25;4978576;28;20045;-79
2023/03/09 07:12:59;;;;;;;5.38;3.20;;;;;;;5.23;55.58;99366.59;4994924;28;20081;-79
2023/03/09 07:15:28;;;;;;;5.97;3.63;;;;;;;5.57;54.67;99376.06;4978633;28;20049;-79
2023/03/09 07:17:54;;;;;;;7.13;3.83;;;;;;;5.80;54.36;99371.19;4995806;28;20504;-80
2023/03/09 07:20:24;;;;;;;9.70;4.28;;;;;;;5.85;53.22;99367.31;4993972;28;20332;-79
2023/03/09 07:22:51;;;;;;;6.53;3.50;;;;;;;5.78;53.55;99363.31;4978850;28;20572;-78
2023/03/09 07:25:17;;;;;;;4.75;3.28;;;;;;;5.66;53.10;99371.16;4996335;28;20050;-77
2023/03/09 07:27:43;;;;;;;5.63;3.53;;;;;;;5.84;53.31;99364.75;4995886;28;20073;-81
2023/03/09 07:30:09;;;;;;;3.95;3.10;;;;;;;5.60;53.12;99365.28;4994456;28;20065;-77
2023/03/09 07:32:35;;;;;;;3.97;3.15;;;;;;;5.77;53.57;99355.47;4978569;28;20042;-79
2023/03/09 07:35:01;;;;;;;5.05;3.10;;;;;;;5.99;52.28;99352.41;4995481;28;20049;-78
2023/03/09 07:37:28;;;;;;;2.63;2.42;;;;;;;6.16;52.17;99351.34;4978570;28;20073;-78
2023/03/09 07:39:54;;;;;;;4.55;3.08;;;;;;;6.21;52.45;99350.13;4994206;28;20050;-80
2023/03/09 07:42:20;;;;;;;5.00;3.67;;;;;;;6.36;52.72;99331.53;4995770;28;20048;-78
2023/03/09 07:45:09;;;;;;;4.95;3.53;;;;;;;6.79;51.43;99334.97;4996177;28;20046;-78
2023/03/09 07:47:36;;;;;;;9.10;4.10;;;;;;;7.01;50.87;99337.94;4995792;28;20046;-79
2023/03/09 07:50:03;;;;;;;6.30;4.10;;;;;;;7.28;50.81;99339.72;4995628;28;20124;-78
2023/03/09 07:52:32;;;;;;;11.95;4.07;;;;;;;7.59;50.05;99341.16;4994118;28;20050;-79
2023/03/09 07:54:58;;;;;;;6.50;3.67;;;;;;;7.66;49.60;99336.28;4978189;28;20038;-80
2023/03/09 07:57:24;;;;;;;6.47;3.90;;;;;;;7.70;49.29;99343.09;4995709;28;20061;-77
2023/03/09 07:59:54;;;;;;;7.25;3.53;;;;;;;7.85;49.19;99335.88;4995492;28;20050;-79
2023/03/09 08:02:20;;;;;;;6.07;3.42;;;;;;;7.33;49.08;99337.59;4993951;28;20089;-78
2023/03/09 08:04:46;;;;;;;7.78;3.25;;;;;;;7.10;49.92;99344.44;4994943;28;20050;-78
2023/03/09 08:07:12;;;;;;;4.90;3.85;;;;;;;7.04;49.90;99356.34;4995472;28;20049;-79
2023/03/09 08:09:38;;;;;;;6.60;3.45;;;;;;;7.47;49.68;99350.81;4995498;28;20046;-77
2023/03/09 08:12:04;;;;;;;3.53;3.08;;;;;;;8.01;48.19;99357.81;4977316;28;20042;-80
2023/03/09 08:14:30;;;;;;;3.38;2.47;;;;;;;7.92;47.77;99366.44;4993756;28;20512;-80
2023/03/09 08:16:57;;;;;;;3.63;3.03;;;;;;;7.74;48.13;99372.03;4993618;28;20074;-78
2023/03/09 08:19:23;;;;;;;3.38;2.88;;;;;;;7.51;48.09;99365.63;4994616;28;20042;-78
2023/03/09 08:21:49;;;;;;;5.53;3.20;;;;;;;7.64;48.09;99354.19;4977170;28;20145;-78
2023/03/09 08:24:16;;;;;;;4.22;3.00;;;;;;;7.88;48.15;99348.97;5010378;28;20104;-79
2023/03/09 08:26:43;;;;;;;6.40;3.15;;;;;;;7.84;47.49;99337.69;4978316;28;20101;-81
2023/03/09 08:29:09;;;;;;;4.75;3.50;;;;;;;8.41;47.75;99355.91;4994011;28;20038;-80
2023/03/09 08:31:35;;;;;;;6.30;4.32;;;;;;;8.19;47.19;99366.34;4977760;28;20042;-79
2023/03/09 08:34:03;;;;;;;9.23;4.38;;;;;;;8.29;46.75;99362.06;5010116;28;20048;-80
2023/03/09 08:36:29;;;;;;;5.13;3.70;;;;;;;8.20;47.19;99374.22;4993950;28;20113;-80
2023/03/09 08:38:56;;;;;;;6.75;4.57;;;;;;;8.33;46.37;99379.53;4993413;28;20497;-80
2023/03/09 08:41:22;;;;;;;7.82;3.63;;;;;;;8.15;47.07;99372.81;4994017;28;20042;-79
2023/03/09 08:43:49;;;;;;;4.63;3.47;;;;;;;8.19;46.82;99356.53;4976661;28;20100;-80
2023/03/09 08:46:19;;;;;;;6.65;3.67;;;;;;;8.70;46.88;99363.63;4991218;28;20477;-79
2023/03/09 08:48:48;;;;;;;6.18;3.75;;;;;;;9.07;45.42;99369.81;4973880;28;20569;-81
2023/03/09 08:51:14;;;;;;;7.75;4.13;;;;;;;9.00;45.93;99366.75;4975316;28;20494;-82
2023/03/09 08:53:40;;;;;;;4.60;3.70;;;;;;;9.20;45.28;99369.75;4990539;28;20074;-80
2023/03/09 08:56:09;;;;;;;4.10;3.35;;;;;;;9.53;45.15;99368.22;4957035;28;20054;-79
2023/03/09 08:58:35;;;;;;;4.78;3.50;;;;;;;10.19;44.12;99364.00;4954217;29;20121;-80
2023/03/09 09:01:04;;;;;;;6.55;3.42;;;;;;;9.76;43.47;99355.78;4937706;29;20061;-81
2023/03/09 09:03:30;;;;;;;10.88;3.25;;;;;;;9.20;44.08;99348.41;4939738;29;20070;-82
2023/03/09 09:06:03;;;;;;;4.82;3.33;;;;;;;8.99;45.23;99364.19;4968234;28;20043;-79
2023/03/09 09:08:29;;;;;;;5.10;3.33;;;;;;;8.50;45.83;99371.25;4974718;28;20051;-77
2023/03/09 09:10:56;;;;;;;5.07;3.33;;;;;;;8.30;46.16;99358.44;4974602;28;20066;-79
2023/03/09 09:13:23;;;;;;;5.00;3.42;;;;;;;7.78;47.53;99368.25;4974453;28;20054;-77
2023/03/09 09:15:55;;;;;;;4.90;3.70;;;;;;;7.04;49.19;99368.78;4973150;28;20106;-76
2023/03/09 09:18:21;;;;;;;4.13;3.60;;;;;;;6.73;49.86;99351.28;4989445;28;20097;-80
2023/03/09 09:20:47;;;;;;;5.22;3.45;;;;;;;6.72;49.85;99341.63;4973109;28;20073;-79
2023/03/09 09:23:14;;;;;;;7.10;3.40;;;;;;;7.11;49.65;99324.03;4973794;28;20564;-79
2023/03/09 09:25:40;;;;;;;3.90;3.38;;;;;;;6.74;50.01;99321.13;4973828;28;20518;-82
2023/03/09 09:28:06;;;;;;;6.00;4.10;;;;;;;6.91;50.12;99318.22;4974348;28;20054;-77
2023/03/09 09:30:32;;;;;;;5.82;4.03;;;;;;;6.93;50.13;99294.22;4957830;28;20038;-81
2023/03/09 09:32:59;;;;;;;9.45;4.00;;;;;;;6.91;50.64;99301.44;4977001;28;20129;-78
2023/03/09 09:35:25;;;;;;;7.00;4.00;;;;;;;6.79;50.36;99306.59;4976478;28;20066;-80
2023/03/09 09:37:54;;;;;;;6.70;4.53;;;;;;;6.66;50.67;99305.69;4959652;28;20038;-83
2023/03/09 09:40:20;;;;;;;9.93;4.05;;;;;;;6.35;51.69;99298.81;4957426;28;20055;-78
2023/03/09 09:42:47;;;;;;;8.20;4.32;;;;;;;6.23;51.70;99288.97;4974135;28;20035;-80
2023/03/09 09:45:26;;;;;;;9.25;5.03;;;;;;;6.20;52.35;99299.78;4973196;28;20074;-78
2023/03/09 09:47:55;;;;;;;12.18;4.68;;;;;;;6.05;52.70;99299.78;4974925;28;20576;-80
2023/03/09 09:50:26;;;;;;;8.27;4.82;;;;;;;5.96;52.44;99289.75;4975688;28;20042;-79
2023/03/09 09:53:16;;;;;;;8.55;4.25;;;;;;;5.99;52.67;99292.22;4978697;28;20066;-79
2023/03/09 09:55:44;;;;;;;12.85;4.60;;;;;;;5.84;54.16;99271.91;4980872;28;20085;-87
2023/03/09 09:58:33;;;;;;;11.65;5.38;;;;;;;5.56;53.86;99289.50;4975232;28;20055;-77
2023/03/09 10:01:04;;;;;;;12.93;4.80;;;;;;;5.51;54.27;99312.78;4974587;28;20042;-77
2023/03/09 10:03:40;;;;;;;11.27;5.25;;;;;;;5.37;55.12;99294.19;4973065;28;20073;-76
2023/03/09 10:06:21;;;;;;;13.88;4.97;;;;;;;5.56;54.36;99305.41;4957684;28;20490;-76
2023/03/09 10:09:00;;;;;;;13.27;4.63;;;;;;;5.94;54.43;99307.59;4972729;28;20074;-78
2023/03/09 10:11:31;;;;;;;15.25;4.15;;;;;;;6.29;53.17;99308.03;4956472;28;20061;-77
2023/03/09 10:14:11;;;;;;;8.30;4.63;;;;;;;6.20;53.19;99299.78;4973891;28;20094;-76
2023/03/09 10:16:43;;;;;;;8.23;3.92;;;;;;;6.30;52.87;99308.88;4972597;28;20133;-76
2023/03/09 10:19:28;;;;;;;8.05;4.38;;;;;;;6.35;52.51;99314.75;4971823;28;20043;-77
2023/03/09 10:22:24;;;;;;;7.68;3.88;;;;;;;6.39;52.67;99310.09;4988553;28;20074;-76
2023/03/09 10:24:52;;;;;;;6.88;4.90;;;;;;;6.62;52.77;99305.97;4970713;28;20043;-75
2023/03/09 10:27:18;;;;;;;8.95;3.85;;;;;;;6.57;51.58;99307.13;4987771;28;20409;-78
2023/03/09 10:29:53;;;;;;;10.38;5.10;;;;;;;6.11;52.83;99327.75;4971385;28;20054;-76
2023/03/09 10:32:42;;;;;;;7.40;4.32;;;;;;;5.97;53.11;99328.59;4973199;28;20414;-79
2023/03/09 10:35:32;;;;;;;6.30;4.78;;;;;;;6.70;62.20;99330.25;4938869;28;20417;-84
2023/03/09 10:37:59;;;;;;;7.13;4.70;;;;;;;7.09;53.74;99323.28;4976098;28;20046;-78
2023/03/09 10:40:29;;;;;;;7.28;4.75;;;;;;;6.57;52.61;99331.03;4975548;28;20055;-77
2023/03/09 10:42:58;;;;;;;8.00;3.90;;;;;;;6.24;52.61;99319.88;4976653;28;20074;-77
2023/03/09 10:45:33;;;;;;;12.23;4.87;;;;;;;6.11;53.03;99337.53;4942229;28;20374;-75
2023/03/09 10:48:00;;;;;;;9.25;4.72;;;;;;;5.76;53.50;99332.53;4959414;28;20708;-76
2023/03/09 10:50:30;;;;;;;6.97;4.32;;;;;;;5.69;53.89;99339.16;4991744;28;20053;-74
2023/03/09 10:52:56;;;;;;;6.20;4.03;;;;;;;5.57;54.31;99336.31;4975046;28;20074;-77
2023/03/09 10:55:31;;;;;;;5.85;4.15;;;;;;;5.23;55.45;99349.84;4975918;28;20556;-76
2023/03/09 10:57:59;;;;;;;6.22;4.15;;;;;;;5.11;55.47;99336.34;4958661;28;20051;-75
2023/03/09 11:00:26;;;;;;;10.20;4.35;;;;;;;5.09;56.02;99326.78;4990753;28;20039;-76
2023/03/09 11:02:59;;;;;;;5.90;3.97;;;;;;;5.20;55.87;99340.25;4976320;28;20093;-77
2023/03/09 11:05:35;;;;;;;8.13;3.83;;;;;;;5.00;56.27;99330.81;4958931;28;20133;-74
2023/03/09 11:08:07;;;;;;;15.10;4.35;;;;;;;5.00;56.07;99328.16;4976343;28;20039;-77
2023/03/09 11:10:35;;;;;;;12.32;4.20;;;;;;;5.00;56.98;99335.22;4974886;28;20043;-78
2023/03/09 11:13:02;;;;;;;7.32;4.05;;;;;;;5.18;57.67;99325.38;4974482;28;20053;-77
2023/03/09 11:15:33;;;;;;;6.05;3.70;;;;;;;5.30;56.30;99329.97;4963044;28;20522;-76
2023/03/09 11:18:23;;;;;;;4.95;3.85;;;;;;;5.12;56.09;99334.56;4939753;29;20047;-76
2023/03/09 11:20:53;;;;;;;7.13;4.30;;;;;;;4.69;57.15;99338.78;4943728;28;20121;-76
2023/03/09 11:23:35;;;;;;;7.18;4.38;;;;;;;4.71;57.40;99331.63;4964405;28;20047;-75
2023/03/09 11:26:13;;;;;;;7.50;4.40;;;;;;;4.60;58.29;99338.34;4971216;28;20086;-76
2023/03/09 11:28:42;;;;;;;7.13;4.35;;;;;;;4.54;58.66;99336.03;4971235;28;20062;-75
2023/03/09 11:31:18;;;;;;;8.47;4.37;;;;;;;4.53;58.52;99334.34;4972192;28;20049;-77
2023/03/09 11:33:46;;;;;;;6.68;4.15;;;;;;;4.74;58.28;99342.00;4972421;28;20302;-76
2023/03/09 11:36:20;;;;;;;12.98;4.40;;;;;;;4.78;58.00;99339.13;4970459;28;20067;-77
2023/03/09 11:38:47;;;;;;;7.43;4.43;;;;;;;4.67;58.50;99330.09;4937356;29;20506;-76
2023/03/09 11:41:30;;;;;;;10.80;4.72;;;;;;;4.79;58.37;99337.31;4930844;28;20039;-77
2023/03/09 11:44:07;;;;;;;7.88;4.80;;;;;;;4.66;58.55;99337.13;4971032;28;20506;-77
2023/03/09 11:46:33;;;;;;;16.15;5.05;;;;;;;4.57;58.66;99308.56;4954269;28;20113;-79
2023/03/09 11:49:09;;;;;;;8.25;4.30;;;;;;;4.66;58.74;99323.06;4971590;28;20043;-77
2023/03/09 11:51:44;;;;;;;9.80;5.72;;;;;;;4.87;58.60;99328.00;4965180;28;20049;-76